sensor_id;sensor_type;location;lat;lon;timestamp;pressure;altitude;pressure_sealevel;temperature;humidity
19676;BME280;39539;52.202;9.876;2023-03-20T00:01:55;100910.00;;;9.60;100.00
19676;BME280;39539;52.202;9.876;2023-03-20T00:04:20;100900.59;;;9.58;100.00
19676;BME280;39539;52.202;9.876;2023-03-20T00:06:45;100907.59;;;9.65;100.00
19676;BME280;39539;52.202;9.876;2023-03-20T00:09:11;100899.19;;;9.62;100.00
19676;BME280;39539;52.202;9.876;2023-03-20T00:11:46;100922.13;;;9.76;100.00
19676;BME280;39539;52.202;9.876;2023-03-20T00:14:13;100926.25;;;9.79;100.00
19676;BME280;39539;52.202;9.876;2023-03-20T00:16:44;100901.25;;;9.66;100.00
19676;BME280;39539;52.202;9.876;2023-03-20T00:19:21;100921.13;;;9.77;100.00
19676;BME280;39539;52.202;9.876;2023-03-20T00:21:48;100925.47;;;9.85;100.00
19676;BME280;39539;52.202;9.876;2023-03-20T00:24:14;100908.25;;;9.74;100.00
19676;BME280;39539;52.202;9.876;2023-03-20T00:26:41;100921.59;;;9.87;100.00
19676;BME280;39539;52.202;9.876;2023-03-20T00:29:14;100922.44;;;9.88;100.00
19676;BME280;39539;52.202;9.876;2023-03-20T00:31:41;100920.75;;;9.80;100.00
19676;BME280;39539;52.202;9.876;2023-03-20T00:34:13;100920.25;;;9.70;100.00
19676;BME280;39539;52.202;9.876;2023-03-20T00:36:39;100918.63;;;9.69;100.00
19676;BME280;39539;52.202;9.876;2023-03-20T00:39:04;100934.19;;;9.72;100.00
19676;BME280;39539;52.202;9.876;2023-03-20T00:41:43;100935.41;;;9.76;100.00
19676;BME280;39539;52.202;9.876;2023-03-20T00:46:45;100924.72;;;9.63;100.00
19676;BME280;39539;52.202;9.876;2023-03-20T00:49:11;100923.06;;;9.62;100.00
19676;BME280;39539;52.202;9.876;2023-03-20T00:51:36;100929.81;;;9.64;100.00
19676;BME280;39539;52.202;9.876;2023-03-20T00:54:11;100907.47;;;9.46;100.00
19676;BME280;39539;52.202;9.876;2023-03-20T00:59:21;100940.97;;;9.53;100.00
19676;BME280;39539;52.202;9.876;2023-03-20T01:01:48;100933.63;;;9.49;100.00
19676;BME280;39539;52.202;9.876;2023-03-20T01:04:16;100939.72;;;9.49;100.00
19676;BME280;39539;52.202;9.876;2023-03-20T01:06:43;100938.66;;;9.43;100.00
19676;BME280;39539;52.202;9.876;2023-03-20T01:09:09;100937.84;;;9.43;100.00
19676;BME280;39539;52.202;9.876;2023-03-20T01:11:35;100940.31;;;9.44;100.00
19676;BME280;39539;52.202;9.876;2023-03-20T01:14:01;100928.97;;;9.29;100.00
19676;BME280;39539;52.202;9.876;2023-03-20T01:16:27;100946.00;;;9.41;100.00
19676;BME280;39539;52.202;9.876;2023-03-20T01:18:53;100948.66;;;9.41;100.00
19676;BME280;39539;52.202;9.876;2023-03-20T01:21:19;100943.84;;;9.52;100.00
19676;BME280;39539;52.202;9.876;2023-03-20T01:23:46;100938.91;;;9.49;100.00
19676;BME280;39539;52.202;9.876;2023-03-20T01:26:26;100924.13;;;9.39;100.00
19676;BME280;39539;52.202;9.876;2023-03-20T01:28:53;100952.78;;;9.51;100.00
19676;BME280;39539;52.202;9.876;2023-03-20T01:31:18;100937.09;;;9.49;100.00
19676;BME280;39539;52.202;9.876;2023-03-20T01:33:44;100940.56;;;9.50;100.00
19676;BME280;39539;52.202;9.876;2023-03-20T01:36:11;100941.38;;;9.50;100.00
19676;BME280;39539;52.202;9.876;2023-03-20T01:38:37;100930.72;;;9.43;100.00
19676;BME280;39539;52.202;9.876;2023-03-20T01:41:06;100948.50;;;9.50;100.00
19676;BME280;39539;52.202;9.876;2023-03-20T01:43:35;100931.53;;;9.44;100.00
19676;BME280;39539;52.202;9.876;2023-03-20T01:46:14;100941.75;;;9.47;100.00
19676;BME280;39539;52.202;9.876;2023-03-20T01:51:19;100951.16;;;9.50;100.00
19676;BME280;39539;52.202;9.876;2023-03-20T01:54:00;100954.84;;;9.49;100.00
19676;BME280;39539;52.202;9.876;2023-03-20T01:56:32;100961.38;;;9.53;100.00
19676;BME280;39539;52.202;9.876;2023-03-20T01:59:13;100961.00;;;9.56;100.00
19676;BME280;39539;52.202;9.876;2023-03-20T02:01:41;100948.50;;;9.50;100.00
19676;BME280;39539;52.202;9.876;2023-03-20T02:04:08;100954.38;;;9.45;100.00
19676;BME280;39539;52.202;9.876;2023-03-20T02:06:34;100957.66;;;9.47;100.00
19676;BME280;39539;52.202;9.876;2023-03-20T02:09:01;100960.66;;;9.37;100.00
19676;BME280;39539;52.202;9.876;2023-03-20T02:11:28;100951.69;;;9.38;100.00
19676;BME280;39539;52.202;9.876;2023-03-20T02:13:56;100958.75;;;9.31;100.00
19676;BME280;39539;52.202;9.876;2023-03-20T02:16:22;100979.25;;;9.37;100.00
19676;BME280;39539;52.202;9.876;2023-03-20T02:18:50;100973.53;;;9.40;100.00
19676;BME280;39539;52.202;9.876;2023-03-20T02:21:58;100974.16;;;9.42;100.00
19676;BME280;39539;52.202;9.876;2023-03-20T02:31:01;100988.69;;;9.47;100.00
19676;BME280;39539;52.202;9.876;2023-03-20T02:36:09;101002.22;;;9.52;100.00
19676;BME280;39539;52.202;9.876;2023-03-20T02:39:12;100998.97;;;9.56;100.00
19676;BME280;39539;52.202;9.876;2023-03-20T02:41:46;101009.16;;;9.53;100.00
19676;BME280;39539;52.202;9.876;2023-03-20T02:44:23;101009.41;;;9.58;100.00
19676;BME280;39539;52.202;9.876;2023-03-20T02:55:09;101003.56;;;9.41;100.00
19676;BME280;39539;52.202;9.876;2023-03-20T02:57:46;101001.84;;;9.33;100.00
19676;BME280;39539;52.202;9.876;2023-03-20T03:02:53;100988.00;;;9.16;100.00
19676;BME280;39539;52.202;9.876;2023-03-20T03:05:24;100988.09;;;9.23;100.00
19676;BME280;39539;52.202;9.876;2023-03-20T03:07:56;100983.09;;;9.13;100.00
19676;BME280;39539;52.202;9.876;2023-03-20T03:10:30;100972.16;;;9.02;100.00
19676;BME280;39539;52.202;9.876;2023-03-20T03:12:59;100976.34;;;8.89;100.00
19676;BME280;39539;52.202;9.876;2023-03-20T03:15:37;100964.38;;;8.79;100.00
19676;BME280;39539;52.202;9.876;2023-03-20T03:18:06;100970.38;;;8.51;100.00
19676;BME280;39539;52.202;9.876;2023-03-20T03:20:37;100968.13;;;8.33;100.00
19676;BME280;39539;52.202;9.876;2023-03-20T03:23:04;100975.69;;;8.36;100.00
19676;BME280;39539;52.202;9.876;2023-03-20T03:25:35;100973.13;;;8.28;100.00
19676;BME280;39539;52.202;9.876;2023-03-20T03:28:26;100970.78;;;8.18;100.00
19676;BME280;39539;52.202;9.876;2023-03-20T03:30:55;100969.69;;;8.13;100.00
19676;BME280;39539;52.202;9.876;2023-03-20T03:33:31;100973.69;;;8.08;100.00
19676;BME280;39539;52.202;9.876;2023-03-20T03:42:12;100976.94;;;7.81;100.00
19676;BME280;39539;52.202;9.876;2023-03-20T03:45:09;100972.09;;;7.70;100.00
19676;BME280;39539;52.202;9.876;2023-03-20T03:47:41;100968.47;;;7.56;100.00
19676;BME280;39539;52.202;9.876;2023-03-20T03:50:20;100971.53;;;7.45;100.00
19676;BME280;39539;52.202;9.876;2023-03-20T03:52:49;100972.78;;;7.34;100.00
19676;BME280;39539;52.202;9.876;2023-03-20T03:55:29;100965.13;;;7.39;100.00
19676;BME280;39539;52.202;9.876;2023-03-20T04:00:51;100964.59;;;7.58;100.00
19676;BME280;39539;52.202;9.876;2023-03-20T04:03:20;100955.41;;;7.54;100.00
19676;BME280;39539;52.202;9.876;2023-03-20T04:05:50;100963.91;;;7.64;100.00
19676;BME280;39539;52.202;9.876;2023-03-20T04:08:18;100966.44;;;7.73;100.00
19676;BME280;39539;52.202;9.876;2023-03-20T04:10:43;100970.38;;;7.77;100.00
19676;BME280;39539;52.202;9.876;2023-03-20T04:13:09;100958.44;;;7.81;100.00
19676;BME280;39539;52.202;9.876;2023-03-20T04:15:35;100980.81;;;7.93;100.00
19676;BME280;39539;52.202;9.876;2023-03-20T04:18:01;100981.72;;;8.00;100.00
19676;BME280;39539;52.202;9.876;2023-03-20T04:20:26;100969.88;;;7.96;100.00
19676;BME280;39539;52.202;9.876;2023-03-20T04:22:51;100988.56;;;8.09;100.00
19676;BME280;39539;52.202;9.876;2023-03-20T04:25:22;100980.91;;;8.15;100.00
19676;BME280;39539;52.202;9.876;2023-03-20T04:27:48;100985.22;;;8.16;100.00
19676;BME280;39539;52.202;9.876;2023-03-20T04:30:15;100988.22;;;8.27;100.00
19676;BME280;39539;52.202;9.876;2023-03-20T04:32:40;100982.91;;;8.27;100.00
19676;BME280;39539;52.202;9.876;2023-03-20T04:35:06;100973.88;;;8.22;100.00
19676;BME280;39539;52.202;9.876;2023-03-20T04:37:32;100985.00;;;8.32;100.00
19676;BME280;39539;52.202;9.876;2023-03-20T04:39:57;100973.03;;;8.36;100.00
19676;BME280;39539;52.202;9.876;2023-03-20T04:42:22;100976.22;;;8.46;100.00
19676;BME280;39539;52.202;9.876;2023-03-20T04:44:48;100958.44;;;8.40;100.00
19676;BME280;39539;52.202;9.876;2023-03-20T04:47:13;100966.84;;;8.44;100.00
19676;BME280;39539;52.202;9.876;2023-03-20T04:49:38;100959.78;;;8.36;100.00
19676;BME280;39539;52.202;9.876;2023-03-20T04:52:04;100963.09;;;8.38;100.00
19676;BME280;39539;52.202;9.876;2023-03-20T04:54:30;100962.38;;;8.44;100.00
19676;BME280;39539;52.202;9.876;2023-03-20T04:56:55;100959.72;;;8.44;100.00
19676;BME280;39539;52.202;9.876;2023-03-20T04:59:20;100967.03;;;8.42;100.00
19676;BME280;39539;52.202;9.876;2023-03-20T05:01:46;100940.59;;;8.34;100.00
19676;BME280;39539;52.202;9.876;2023-03-20T05:04:11;100953.22;;;8.32;100.00
19676;BME280;39539;52.202;9.876;2023-03-20T05:06:37;100941.72;;;8.25;100.00
19676;BME280;39539;52.202;9.876;2023-03-20T05:09:04;100949.38;;;8.35;100.00
19676;BME280;39539;52.202;9.876;2023-03-20T05:11:30;100944.66;;;8.30;100.00
19676;BME280;39539;52.202;9.876;2023-03-20T05:13:55;100945.47;;;8.30;100.00
19676;BME280;39539;52.202;9.876;2023-03-20T05:16:20;100920.97;;;8.28;100.00
19676;BME280;39539;52.202;9.876;2023-03-20T05:18:46;100920.25;;;8.35;100.00
19676;BME280;39539;52.202;9.876;2023-03-20T05:21:11;100925.38;;;8.36;100.00
19676;BME280;39539;52.202;9.876;2023-03-20T05:23:37;100939.53;;;8.43;100.00
19676;BME280;39539;52.202;9.876;2023-03-20T05:26:02;100924.34;;;8.37;100.00
19676;BME280;39539;52.202;9.876;2023-03-20T05:28:28;100929.78;;;8.44;100.00
19676;BME280;39539;52.202;9.876;2023-03-20T05:30:53;100936.25;;;8.41;100.00
19676;BME280;39539;52.202;9.876;2023-03-20T05:33:19;100937.72;;;8.44;100.00
19676;BME280;39539;52.202;9.876;2023-03-20T05:35:46;100933.94;;;8.38;100.00
19676;BME280;39539;52.202;9.876;2023-03-20T05:38:11;100941.25;;;8.51;100.00
19676;BME280;39539;52.202;9.876;2023-03-20T05:40:37;100943.34;;;8.56;100.00
19676;BME280;39539;52.202;9.876;2023-03-20T05:43:03;100943.41;;;8.62;100.00
19676;BME280;39539;52.202;9.876;2023-03-20T05:45:29;100950.81;;;8.67;100.00
19676;BME280;39539;52.202;9.876;2023-03-20T05:47:55;100952.59;;;8.81;100.00
19676;BME280;39539;52.202;9.876;2023-03-20T05:50:22;100953.34;;;8.75;100.00
19676;BME280;39539;52.202;9.876;2023-03-20T05:52:48;100941.19;;;8.81;100.00
19676;BME280;39539;52.202;9.876;2023-03-20T05:55:14;100949.38;;;8.86;100.00
19676;BME280;39539;52.202;9.876;2023-03-20T05:57:39;100942.63;;;8.83;100.00
19676;BME280;39539;52.202;9.876;2023-03-20T06:00:05;100956.75;;;8.90;100.00
19676;BME280;39539;52.202;9.876;2023-03-20T06:02:31;100963.56;;;8.99;100.00
19676;BME280;39539;52.202;9.876;2023-03-20T06:04:57;100973.63;;;9.04;100.00
19676;BME280;39539;52.202;9.876;2023-03-20T06:07:23;100964.47;;;9.07;100.00
19676;BME280;39539;52.202;9.876;2023-03-20T06:09:49;100956.53;;;9.07;100.00
19676;BME280;39539;52.202;9.876;2023-03-20T06:12:15;100972.78;;;9.25;100.00
19676;BME280;39539;52.202;9.876;2023-03-20T06:14:40;100968.75;;;9.29;100.00
19676;BME280;39539;52.202;9.876;2023-03-20T06:17:06;100961.56;;;9.23;100.00
19676;BME280;39539;52.202;9.876;2023-03-20T06:19:31;100964.59;;;9.20;100.00
19676;BME280;39539;52.202;9.876;2023-03-20T06:21:56;100954.50;;;9.09;100.00
19676;BME280;39539;52.202;9.876;2023-03-20T06:24:22;100952.06;;;9.14;100.00
19676;BME280;39539;52.202;9.876;2023-03-20T06:26:47;100965.97;;;9.16;100.00
19676;BME280;39539;52.202;9.876;2023-03-20T06:29:12;100963.31;;;9.16;100.00
19676;BME280;39539;52.202;9.876;2023-03-20T06:31:38;100970.78;;;9.27;100.00
19676;BME280;39539;52.202;9.876;2023-03-20T06:34:03;100963.44;;;9.29;100.00
19676;BME280;39539;52.202;9.876;2023-03-20T06:36:29;100967.78;;;9.37;100.00
19676;BME280;39539;52.202;9.876;2023-03-20T06:38:55;100970.31;;;9.45;100.00
19676;BME280;39539;52.202;9.876;2023-03-20T06:41:21;100982.63;;;9.53;100.00
19676;BME280;39539;52.202;9.876;2023-03-20T06:43:46;100965.84;;;9.46;100.00
19676;BME280;39539;52.202;9.876;2023-03-20T06:46:11;100966.41;;;9.41;100.00
19676;BME280;39539;52.202;9.876;2023-03-20T06:48:37;100973.53;;;9.40;100.00
19676;BME280;39539;52.202;9.876;2023-03-20T06:51:02;100968.38;;;9.32;100.00
19676;BME280;39539;52.202;9.876;2023-03-20T06:53:28;100982.75;;;9.44;100.00
19676;BME280;39539;52.202;9.876;2023-03-20T06:55:54;100992.00;;;9.49;100.00
19676;BME280;39539;52.202;9.876;2023-03-20T06:58:21;100990.06;;;9.42;100.00
19676;BME280;39539;52.202;9.876;2023-03-20T07:00:46;100980.88;;;9.38;100.00
19676;BME280;39539;52.202;9.876;2023-03-20T07:03:11;100983.53;;;9.38;100.00
19676;BME280;39539;52.202;9.876;2023-03-20T07:05:38;100976.34;;;9.32;100.00
19676;BME280;39539;52.202;9.876;2023-03-20T07:08:05;100987.25;;;9.44;100.00
19676;BME280;39539;52.202;9.876;2023-03-20T07:10:32;100983.69;;;9.37;100.00
19676;BME280;39539;52.202;9.876;2023-03-20T07:12:58;100988.19;;;9.36;100.00
19676;BME280;39539;52.202;9.876;2023-03-20T07:15:24;100982.28;;;9.34;100.00
19676;BME280;39539;52.202;9.876;2023-03-20T07:17:50;100982.88;;;9.36;100.00
19676;BME280;39539;52.202;9.876;2023-03-20T07:20:16;100975.06;;;9.28;100.00
19676;BME280;39539;52.202;9.876;2023-03-20T07:22:42;100983.09;;;9.35;100.00
19676;BME280;39539;52.202;9.876;2023-03-20T07:25:11;100993.19;;;9.46;100.00
19676;BME280;39539;52.202;9.876;2023-03-20T07:27:38;101000.16;;;9.54;100.00
19676;BME280;39539;52.202;9.876;2023-03-20T07:30:04;100990.84;;;9.58;100.00
19676;BME280;39539;52.202;9.876;2023-03-20T07:32:32;101007.59;;;9.65;100.00
19676;BME280;39539;52.202;9.876;2023-03-20T07:34:57;100978.41;;;9.65;100.00
19676;BME280;39539;52.202;9.876;2023-03-20T07:37:23;101009.94;;;10.03;100.00
19676;BME280;39539;52.202;9.876;2023-03-20T07:39:48;100995.25;;;10.07;100.00
19676;BME280;39539;52.202;9.876;2023-03-20T07:42:15;100984.22;;;10.10;100.00
19676;BME280;39539;52.202;9.876;2023-03-20T07:44:41;100993.19;;;10.02;100.00
19676;BME280;39539;52.202;9.876;2023-03-20T07:47:07;101003.31;;;9.92;100.00
19676;BME280;39539;52.202;9.876;2023-03-20T07:49:33;100999.22;;;9.89;100.00
19676;BME280;39539;52.202;9.876;2023-03-20T07:52:00;101002.75;;;9.97;100.00
19676;BME280;39539;52.202;9.876;2023-03-20T07:54:26;101000.63;;;9.85;100.00
19676;BME280;39539;52.202;9.876;2023-03-20T07:56:52;100985.03;;;9.48;100.00
19676;BME280;39539;52.202;9.876;2023-03-20T07:59:21;101004.53;;;9.61;100.00
19676;BME280;39539;52.202;9.876;2023-03-20T08:01:46;100992.47;;;9.59;100.00
19676;BME280;39539;52.202;9.876;2023-03-20T08:04:11;101000.72;;;9.71;100.00
19676;BME280;39539;52.202;9.876;2023-03-20T08:06:37;100989.63;;;9.60;100.00
19676;BME280;39539;52.202;9.876;2023-03-20T08:09:05;100997.00;;;9.65;100.00
19676;BME280;39539;52.202;9.876;2023-03-20T08:11:31;101000.09;;;9.69;100.00
19676;BME280;39539;52.202;9.876;2023-03-20T08:13:58;100994.56;;;9.63;100.00
19676;BME280;39539;52.202;9.876;2023-03-20T08:16:23;101008.63;;;9.92;100.00
19676;BME280;39539;52.202;9.876;2023-03-20T08:18:50;101007.81;;;10.26;100.00
19676;BME280;39539;52.202;9.876;2023-03-20T08:21:18;100990.16;;;10.47;100.00
19676;BME280;39539;52.202;9.876;2023-03-20T08:23:43;101014.78;;;10.62;100.00
19676;BME280;39539;52.202;9.876;2023-03-20T08:26:10;101018.03;;;10.64;100.00
19676;BME280;39539;52.202;9.876;2023-03-20T08:28:35;101007.06;;;10.81;100.00
19676;BME280;39539;52.202;9.876;2023-03-20T08:31:01;101004.38;;;10.67;100.00
19676;BME280;39539;52.202;9.876;2023-03-20T08:33:29;101004.97;;;10.69;100.00
19676;BME280;39539;52.202;9.876;2023-03-20T08:35:56;100991.91;;;10.68;100.00
19676;BME280;39539;52.202;9.876;2023-03-20T08:38:22;101004.63;;;10.79;100.00
19676;BME280;39539;52.202;9.876;2023-03-20T08:40:50;100997.16;;;10.61;100.00
19676;BME280;39539;52.202;9.876;2023-03-20T08:43:16;100988.94;;;10.43;100.00
19676;BME280;39539;52.202;9.876;2023-03-20T08:45:45;100976.66;;;10.42;100.00
19676;BME280;39539;52.202;9.876;2023-03-20T08:48:11;100984.00;;;10.40;100.00
19676;BME280;39539;52.202;9.876;2023-03-20T08:50:36;100982.97;;;10.41;100.00
19676;BME280;39539;52.202;9.876;2023-03-20T08:53:03;100975.19;;;10.32;100.00
19676;BME280;39539;52.202;9.876;2023-03-20T08:55:29;100986.03;;;10.38;100.00
19676;BME280;39539;52.202;9.876;2023-03-20T08:57:54;100995.28;;;10.42;100.00
19676;BME280;39539;52.202;9.876;2023-03-20T09:00:22;101003.56;;;10.73;100.00
19676;BME280;39539;52.202;9.876;2023-03-20T09:02:49;101013.81;;;10.76;100.00
19676;BME280;39539;52.202;9.876;2023-03-20T09:05:15;101006.25;;;10.87;100.00
19676;BME280;39539;52.202;9.876;2023-03-20T09:07:41;101017.97;;;11.06;100.00
19676;BME280;39539;52.202;9.876;2023-03-20T09:10:09;101005.31;;;11.08;99.03
19676;BME280;39539;52.202;9.876;2023-03-20T09:12:35;101007.16;;;11.20;97.62
19676;BME280;39539;52.202;9.876;2023-03-20T09:15:03;101005.50;;;11.13;96.23
19676;BME280;39539;52.202;9.876;2023-03-20T09:17:29;101003.47;;;11.21;96.26
19676;BME280;39539;52.202;9.876;2023-03-20T09:19:56;100997.91;;;11.03;94.41
19676;BME280;39539;52.202;9.876;2023-03-20T09:22:21;101005.03;;;10.83;94.92
19676;BME280;39539;52.202;9.876;2023-03-20T09:24:46;100998.25;;;10.80;96.22
19676;BME280;39539;52.202;9.876;2023-03-20T09:27:12;100991.69;;;10.69;97.43
19676;BME280;39539;52.202;9.876;2023-03-20T09:29:39;100996.56;;;10.59;97.34
19676;BME280;39539;52.202;9.876;2023-03-20T09:32:05;101001.25;;;10.57;97.08
19676;BME280;39539;52.202;9.876;2023-03-20T09:34:30;101006.75;;;10.49;98.16
19676;BME280;39539;52.202;9.876;2023-03-20T09:36:56;101001.25;;;10.50;98.73
19676;BME280;39539;52.202;9.876;2023-03-20T09:39:21;100997.47;;;10.38;100.00
19676;BME280;39539;52.202;9.876;2023-03-20T09:41:47;100995.31;;;10.20;100.00
19676;BME280;39539;52.202;9.876;2023-03-20T09:52:02;100997.91;;;10.07;100.00
19676;BME280;39539;52.202;9.876;2023-03-20T09:54:35;101004.88;;;10.08;100.00
19676;BME280;39539;52.202;9.876;2023-03-20T09:57:27;101002.91;;;9.88;100.00
19676;BME280;39539;52.202;9.876;2023-03-20T10:00:16;101000.16;;;9.75;100.00
19676;BME280;39539;52.202;9.876;2023-03-20T10:05:44;101000.78;;;9.77;100.00
19676;BME280;39539;52.202;9.876;2023-03-20T10:08:14;101001.88;;;9.89;100.00
19676;BME280;39539;52.202;9.876;2023-03-20T10:18:25;100997.06;;;10.34;100.00
19676;BME280;39539;52.202;9.876;2023-03-20T10:21:15;101008.50;;;10.76;99.94
19676;BME280;39539;52.202;9.876;2023-03-20T10:23:52;101008.59;;;11.16;97.73
19676;BME280;39539;52.202;9.876;2023-03-20T10:26:22;101014.34;;;11.40;96.67
19676;BME280;39539;52.202;9.876;2023-03-20T10:31:59;100998.59;;;11.38;92.68
19676;BME280;39539;52.202;9.876;2023-03-20T10:42:56;100990.41;;;11.53;89.39
19676;BME280;39539;52.202;9.876;2023-03-20T10:45:37;100994.09;;;11.72;89.67
19676;BME280;39539;52.202;9.876;2023-03-20T10:48:10;100996.94;;;11.57;89.51
19676;BME280;39539;52.202;9.876;2023-03-20T10:50:52;100970.72;;;11.34;91.91
19676;BME280;39539;52.202;9.876;2023-03-20T10:56:39;100983.81;;;11.96;88.93
19676;BME280;39539;52.202;9.876;2023-03-20T11:01:40;100982.00;;;12.54;87.35
19676;BME280;39539;52.202;9.876;2023-03-20T11:04:06;100972.91;;;12.62;84.37
19676;BME280;39539;52.202;9.876;2023-03-20T11:06:36;100968.81;;;12.66;81.15
19676;BME280;39539;52.202;9.876;2023-03-20T11:09:17;100960.59;;;12.68;81.75
19676;BME280;39539;52.202;9.876;2023-03-20T11:11:45;100961.00;;;12.65;80.52
19676;BME280;39539;52.202;9.876;2023-03-20T11:14:35;100962.25;;;12.69;80.43
19676;BME280;39539;52.202;9.876;2023-03-20T11:17:03;100957.72;;;12.69;80.69
19676;BME280;39539;52.202;9.876;2023-03-20T11:19:36;100946.28;;;12.94;79.55
19676;BME280;39539;52.202;9.876;2023-03-20T11:22:08;100950.94;;;13.05;79.63
19676;BME280;39539;52.202;9.876;2023-03-20T11:24:46;100941.09;;;13.06;78.03
19676;BME280;39539;52.202;9.876;2023-03-20T11:27:26;100945.13;;;13.15;81.09
19676;BME280;39539;52.202;9.876;2023-03-20T11:29:55;100928.19;;;12.96;75.35
19676;BME280;39539;52.202;9.876;2023-03-20T11:32:38;100941.50;;;13.02;75.54
19676;BME280;39539;52.202;9.876;2023-03-20T11:35:17;100932.97;;;12.94;77.54
19676;BME280;39539;52.202;9.876;2023-03-20T11:37:46;100921.78;;;13.03;76.28
19676;BME280;39539;52.202;9.876;2023-03-20T11:42:37;100911.63;;;12.87;75.87
19676;BME280;39539;52.202;9.876;2023-03-20T11:45:15;100901.22;;;12.47;76.72
19676;BME280;39539;52.202;9.876;2023-03-20T11:47:41;100912.41;;;12.24;79.95
19676;BME280;39539;52.202;9.876;2023-03-20T11:50:30;100917.00;;;12.04;78.95
19676;BME280;39539;52.202;9.876;2023-03-20T11:53:18;100915.16;;;12.04;81.12
19676;BME280;39539;52.202;9.876;2023-03-20T11:56:01;100900.94;;;12.17;78.37
19676;BME280;39539;52.202;9.876;2023-03-20T11:58:27;100919.13;;;12.40;78.93
19676;BME280;39539;52.202;9.876;2023-03-20T12:00:54;100918.66;;;12.81;75.86
19676;BME280;39539;52.202;9.876;2023-03-20T12:06:22;100911.19;;;13.47;73.32
19676;BME280;39539;52.202;9.876;2023-03-20T12:09:02;100899.50;;;13.66;70.86
19676;BME280;39539;52.202;9.876;2023-03-20T12:11:49;100896.59;;;13.68;68.09
19676;BME280;39539;52.202;9.876;2023-03-20T12:14:46;100891.31;;;13.61;69.12
19676;BME280;39539;52.202;9.876;2023-03-20T12:17:37;100882.69;;;13.41;70.01
19676;BME280;39539;52.202;9.876;2023-03-20T12:20:23;100888.00;;;13.66;72.51
19676;BME280;39539;52.202;9.876;2023-03-20T12:23:55;100881.75;;;13.72;71.05
19676;BME280;39539;52.202;9.876;2023-03-20T12:34:21;100874.88;;;14.31;69.09
19676;BME280;39539;52.202;9.876;2023-03-20T12:36:49;100882.44;;;14.53;70.32
19676;BME280;39539;52.202;9.876;2023-03-20T12:39:21;100880.84;;;14.64;67.23
19676;BME280;39539;52.202;9.876;2023-03-20T12:42:14;100880.91;;;14.57;65.56
19676;BME280;39539;52.202;9.876;2023-03-20T12:44:54;100877.72;;;14.18;66.50
19676;BME280;39539;52.202;9.876;2023-03-20T12:50:54;100878.59;;;13.13;67.04
19676;BME280;39539;52.202;9.876;2023-03-20T12:53:49;100879.81;;;12.61;68.25
19676;BME280;39539;52.202;9.876;2023-03-20T12:59:30;100870.03;;;12.09;71.29
19676;BME280;39539;52.202;9.876;2023-03-20T13:10:52;100872.13;;;12.39;72.78
19676;BME280;39539;52.202;9.876;2023-03-20T13:13:46;100871.63;;;12.87;75.06
19676;BME280;39539;52.202;9.876;2023-03-20T13:16:25;100869.69;;;13.26;72.07
19676;BME280;39539;52.202;9.876;2023-03-20T13:19:01;100859.91;;;13.38;66.44
19676;BME280;39539;52.202;9.876;2023-03-20T13:21:46;100843.84;;;13.20;67.25
19676;BME280;39539;52.202;9.876;2023-03-20T13:30:30;100848.16;;;13.21;66.66
19676;BME280;39539;52.202;9.876;2023-03-20T13:36:24;100847.59;;;13.37;66.31
19676;BME280;39539;52.202;9.876;2023-03-20T13:39:11;100836.13;;;13.12;67.23
19676;BME280;39539;52.202;9.876;2023-03-20T13:41:40;100841.19;;;13.20;66.61
19676;BME280;39539;52.202;9.876;2023-03-20T13:44:09;100842.56;;;13.29;66.28
19676;BME280;39539;52.202;9.876;2023-03-20T13:46:44;100848.81;;;13.60;67.30
19676;BME280;39539;52.202;9.876;2023-03-20T13:49:21;100844.88;;;13.81;65.64
19676;BME280;39539;52.202;9.876;2023-03-20T14:00:38;100827.44;;;13.41;66.17
19676;BME280;39539;52.202;9.876;2023-03-20T14:03:31;100830.06;;;13.23;67.37
19676;BME280;39539;52.202;9.876;2023-03-20T14:05:58;100832.41;;;13.13;67.13
19676;BME280;39539;52.202;9.876;2023-03-20T14:11:14;100832.47;;;12.81;66.75
19676;BME280;39539;52.202;9.876;2023-03-20T14:13:58;100826.00;;;12.95;67.18
19676;BME280;39539;52.202;9.876;2023-03-20T14:16:28;100822.72;;;12.93;68.14
19676;BME280;39539;52.202;9.876;2023-03-20T14:19:25;100828.22;;;12.98;67.97
19676;BME280;39539;52.202;9.876;2023-03-20T14:21:55;100817.69;;;12.85;67.88
19676;BME280;39539;52.202;9.876;2023-03-20T14:24:22;100809.25;;;12.56;66.45
19676;BME280;39539;52.202;9.876;2023-03-20T14:26:53;100823.59;;;12.62;66.63
19676;BME280;39539;52.202;9.876;2023-03-20T14:29:34;100819.50;;;12.59;67.26
19676;BME280;39539;52.202;9.876;2023-03-20T14:34:47;100817.19;;;12.38;68.53
19676;BME280;39539;52.202;9.876;2023-03-20T14:40:27;100812.44;;;12.08;68.88
19676;BME280;39539;52.202;9.876;2023-03-20T14:43:04;100819.84;;;12.06;70.15
19676;BME280;39539;52.202;9.876;2023-03-20T14:46:05;100828.19;;;12.17;71.41
19676;BME280;39539;52.202;9.876;2023-03-20T14:48:46;100818.56;;;12.16;71.12
19676;BME280;39539;52.202;9.876;2023-03-20T14:54:22;100831.91;;;12.47;69.61
19676;BME280;39539;52.202;9.876;2023-03-20T14:56:42;100831.09;;;12.47;68.95
19676;BME280;39539;52.202;9.876;2023-03-20T14:59:09;100818.06;;;12.32;68.50
19676;BME280;39539;52.202;9.876;2023-03-20T15:01:42;100824.16;;;12.39;68.15
19676;BME280;39539;52.202;9.876;2023-03-20T15:04:33;100819.16;;;12.18;68.52
19676;BME280;39539;52.202;9.876;2023-03-20T15:07:09;100824.63;;;12.29;69.68
19676;BME280;39539;52.202;9.876;2023-03-20T15:09:41;100816.84;;;12.28;70.11
19676;BME280;39539;52.202;9.876;2023-03-20T15:12:08;100821.84;;;12.18;69.88
19676;BME280;39539;52.202;9.876;2023-03-20T15:17:21;100826.28;;;11.85;68.37
19676;BME280;39539;52.202;9.876;2023-03-20T15:19:47;100809.34;;;11.66;68.40
19676;BME280;39539;52.202;9.876;2023-03-20T15:22:15;100806.06;;;11.64;68.90